sensor_id;sensor_type;location;lat;lon;timestamp;pressure;altitude;pressure_sealevel;temperature
72675;BMP280;60752;53.962;9.614;2023-02-01T00:03:36;100802.38;;;4.73
72675;BMP280;60752;53.962;9.614;2023-02-01T00:08:37;100795.28;;;4.68
72675;BMP280;60752;53.962;9.614;2023-02-01T00:13:39;100806.56;;;4.74
72675;BMP280;60752;53.962;9.614;2023-02-01T00:18:41;100796.97;;;4.74
72675;BMP280;60752;53.962;9.614;2023-02-01T00:23:41;100800.88;;;4.77
72675;BMP280;60752;53.962;9.614;2023-02-01T00:28:42;100813.63;;;4.78
72675;BMP280;60752;53.962;9.614;2023-02-01T00:33:46;100785.69;;;4.80
72675;BMP280;60752;53.962;9.614;2023-02-01T00:38:47;100793.25;;;4.82
72675;BMP280;60752;53.962;9.614;2023-02-01T00:43:48;100800.22;;;4.81
72675;BMP280;60752;53.962;9.614;2023-02-01T00:48:50;100787.69;;;4.78
72675;BMP280;60752;53.962;9.614;2023-02-01T00:53:50;100795.03;;;4.81
72675;BMP280;60752;53.962;9.614;2023-02-01T00:58:51;100779.81;;;4.85
72675;BMP280;60752;53.962;9.614;2023-02-01T01:03:54;100783.22;;;4.86
72675;BMP280;60752;53.962;9.614;2023-02-01T01:08:56;100773.28;;;4.94
72675;BMP280;60752;53.962;9.614;2023-02-01T01:13:57;100772.16;;;4.90
72675;BMP280;60752;53.962;9.614;2023-02-01T01:19:00;100768.47;;;4.86
72675;BMP280;60752;53.962;9.614;2023-02-01T01:24:01;100750.53;;;4.85
72675;BMP280;60752;53.962;9.614;2023-02-01T01:29:01;100746.13;;;4.85
72675;BMP280;60752;53.962;9.614;2023-02-01T01:34:03;100749.06;;;4.89
72675;BMP280;60752;53.962;9.614;2023-02-01T01:39:03;100740.16;;;4.85
72675;BMP280;60752;53.962;9.614;2023-02-01T01:44:05;100747.13;;;4.84
72675;BMP280;60752;53.962;9.614;2023-02-01T01:49:10;100744.53;;;4.84
72675;BMP280;60752;53.962;9.614;2023-02-01T01:54:14;100741.28;;;4.89
72675;BMP280;60752;53.962;9.614;2023-02-01T01:59:17;100733.75;;;4.87
72675;BMP280;60752;53.962;9.614;2023-02-01T02:04:19;100736.56;;;4.86
72675;BMP280;60752;53.962;9.614;2023-02-01T02:09:19;100710.66;;;4.86
72675;BMP280;60752;53.962;9.614;2023-02-01T02:14:22;100709.41;;;4.88
72675;BMP280;60752;53.962;9.614;2023-02-01T02:19:49;100698.47;;;4.86
72675;BMP280;60752;53.962;9.614;2023-02-01T02:25:17;100691.25;;;4.88
72675;BMP280;60752;53.962;9.614;2023-02-01T02:30:35;100679.59;;;4.91
72675;BMP280;60752;53.962;9.614;2023-02-01T02:35:45;100686.38;;;4.92
72675;BMP280;60752;53.962;9.614;2023-02-01T02:40:58;100680.09;;;4.88
72675;BMP280;60752;53.962;9.614;2023-02-01T02:46:03;100673.53;;;4.85
72675;BMP280;60752;53.962;9.614;2023-02-01T02:51:07;100670.63;;;4.81
72675;BMP280;60752;53.962;9.614;2023-02-01T02:56:11;100655.09;;;4.81
72675;BMP280;60752;53.962;9.614;2023-02-01T03:01:12;100648.53;;;4.79
72675;BMP280;60752;53.962;9.614;2023-02-01T03:06:16;100655.09;;;4.81
72675;BMP280;60752;53.962;9.614;2023-02-01T03:11:17;100657.78;;;4.87
72675;BMP280;60752;53.962;9.614;2023-02-01T03:16:21;100652.63;;;4.75
72675;BMP280;60752;53.962;9.614;2023-02-01T03:21:26;100658.94;;;4.67
72675;BMP280;60752;53.962;9.614;2023-02-01T03:26:30;100677.31;;;4.54
72675;BMP280;60752;53.962;9.614;2023-02-01T03:31:31;100643.53;;;4.37
72675;BMP280;60752;53.962;9.614;2023-02-01T03:36:37;100650.63;;;4.30
72675;BMP280;60752;53.962;9.614;2023-02-01T03:41:41;100616.53;;;4.21
72675;BMP280;60752;53.962;9.614;2023-02-01T03:46:45;100608.19;;;4.19
72675;BMP280;60752;53.962;9.614;2023-02-01T03:51:50;100623.06;;;4.24
72675;BMP280;60752;53.962;9.614;2023-02-01T03:56:53;100632.50;;;4.30
72675;BMP280;60752;53.962;9.614;2023-02-01T04:01:55;100618.66;;;4.24
72675;BMP280;60752;53.962;9.614;2023-02-01T04:06:57;100615.72;;;4.21
72675;BMP280;60752;53.962;9.614;2023-02-01T04:11:57;100625.09;;;4.22
72675;BMP280;60752;53.962;9.614;2023-02-01T04:16:57;100594.03;;;4.22
72675;BMP280;60752;53.962;9.614;2023-02-01T04:21:59;100591.75;;;4.14
72675;BMP280;60752;53.962;9.614;2023-02-01T04:26:59;100582.41;;;4.13
72675;BMP280;60752;53.962;9.614;2023-02-01T04:32:00;100575.56;;;4.07
72675;BMP280;60752;53.962;9.614;2023-02-01T04:37:02;100576.44;;;4.12
72675;BMP280;60752;53.962;9.614;2023-02-01T04:42:02;100577.13;;;4.19
72675;BMP280;60752;53.962;9.614;2023-02-01T04:47:03;100568.13;;;4.22
72675;BMP280;60752;53.962;9.614;2023-02-01T04:52:05;100561.34;;;4.21
72675;BMP280;60752;53.962;9.614;2023-02-01T04:57:05;100559.22;;;4.18
72675;BMP280;60752;53.962;9.614;2023-02-01T05:02:06;100563.63;;;4.17
72675;BMP280;60752;53.962;9.614;2023-02-01T05:07:07;100568.81;;;4.17
72675;BMP280;60752;53.962;9.614;2023-02-01T05:12:08;100579.59;;;4.14
72675;BMP280;60752;53.962;9.614;2023-02-01T05:17:09;100608.28;;;4.13
72675;BMP280;60752;53.962;9.614;2023-02-01T05:22:11;100602.34;;;4.01
72675;BMP280;60752;53.962;9.614;2023-02-01T05:27:11;100571.59;;;3.81
72675;BMP280;60752;53.962;9.614;2023-02-01T05:32:12;100573.31;;;3.75
72675;BMP280;60752;53.962;9.614;2023-02-01T05:37:13;100567.66;;;3.78
72675;BMP280;60752;53.962;9.614;2023-02-01T05:42:14;100575.66;;;3.77
72675;BMP280;60752;53.962;9.614;2023-02-01T05:47:14;100565.84;;;3.79
72675;BMP280;60752;53.962;9.614;2023-02-01T05:52:16;100565.44;;;3.82
72675;BMP280;60752;53.962;9.614;2023-02-01T05:57:17;100562.38;;;3.85
72675;BMP280;60752;53.962;9.614;2023-02-01T06:02:17;100557.44;;;3.83
72675;BMP280;60752;53.962;9.614;2023-02-01T06:07:19;100562.16;;;3.86
72675;BMP280;60752;53.962;9.614;2023-02-01T06:12:19;100554.50;;;3.80
72675;BMP280;60752;53.962;9.614;2023-02-01T06:17:23;100554.63;;;3.85
72675;BMP280;60752;53.962;9.614;2023-02-01T06:22:24;100548.31;;;3.81
72675;BMP280;60752;53.962;9.614;2023-02-01T06:27:25;100551.91;;;3.80
72675;BMP280;60752;53.962;9.614;2023-02-01T06:32:25;100558.22;;;3.84
72675;BMP280;60752;53.962;9.614;2023-02-01T06:37:27;100556.19;;;3.86
72675;BMP280;60752;53.962;9.614;2023-02-01T06:42:28;100556.09;;;3.92
72675;BMP280;60752;53.962;9.614;2023-02-01T06:47:28;100551.25;;;3.96
72675;BMP280;60752;53.962;9.614;2023-02-01T06:52:30;100561.72;;;4.01
72675;BMP280;60752;53.962;9.614;2023-02-01T06:57:30;100561.59;;;4.08
72675;BMP280;60752;53.962;9.614;2023-02-01T07:02:31;100559.34;;;4.11
72675;BMP280;60752;53.962;9.614;2023-02-01T07:07:33;100568.44;;;4.14
72675;BMP280;60752;53.962;9.614;2023-02-01T07:12:33;100568.34;;;4.20
72675;BMP280;60752;53.962;9.614;2023-02-01T07:17:33;100562.38;;;4.20
72675;BMP280;60752;53.962;9.614;2023-02-01T07:22:35;100566.66;;;4.26
72675;BMP280;60752;53.962;9.614;2023-02-01T07:27:36;100570.91;;;4.32
72675;BMP280;60752;53.962;9.614;2023-02-01T07:32:36;100558.97;;;4.31
72675;BMP280;60752;53.962;9.614;2023-02-01T07:37:38;100570.34;;;4.42
72675;BMP280;60752;53.962;9.614;2023-02-01T07:42:38;100570.78;;;4.39
72675;BMP280;60752;53.962;9.614;2023-02-01T07:47:39;100580.69;;;4.53
72675;BMP280;60752;53.962;9.614;2023-02-01T07:52:41;100573.38;;;4.50
72675;BMP280;60752;53.962;9.614;2023-02-01T07:57:41;100578.88;;;4.54
72675;BMP280;60752;53.962;9.614;2023-02-01T08:02:42;100588.34;;;4.48
72675;BMP280;60752;53.962;9.614;2023-02-01T08:07:43;100594.53;;;4.47
72675;BMP280;60752;53.962;9.614;2023-02-01T08:12:44;100592.84;;;4.53
72675;BMP280;60752;53.962;9.614;2023-02-01T08:17:48;100593.19;;;4.57
72675;BMP280;60752;53.962;9.614;2023-02-01T08:22:50;100594.50;;;4.71
72675;BMP280;60752;53.962;9.614;2023-02-01T08:27:50;100592.44;;;4.73
72675;BMP280;60752;53.962;9.614;2023-02-01T08:32:51;100580.28;;;4.73
72675;BMP280;60752;53.962;9.614;2023-02-01T08:37:52;100582.16;;;4.78
72675;BMP280;60752;53.962;9.614;2023-02-01T08:42:53;100591.84;;;4.82
72675;BMP280;60752;53.962;9.614;2023-02-01T08:47:53;100583.06;;;4.84
72675;BMP280;60752;53.962;9.614;2023-02-01T08:52:55;100587.34;;;4.78
72675;BMP280;60752;53.962;9.614;2023-02-01T08:57:56;100587.38;;;4.66
72675;BMP280;60752;53.962;9.614;2023-02-01T09:02:56;100595.94;;;4.67
72675;BMP280;60752;53.962;9.614;2023-02-01T09:07:58;100587.75;;;4.70
72675;BMP280;60752;53.962;9.614;2023-02-01T09:12:58;100598.84;;;4.82
72675;BMP280;60752;53.962;9.614;2023-02-01T09:17:59;100586.28;;;4.91
72675;BMP280;60752;53.962;9.614;2023-02-01T09:23:00;100578.59;;;5.24
72675;BMP280;60752;53.962;9.614;2023-02-01T09:28:01;100584.28;;;5.38
72675;BMP280;60752;53.962;9.614;2023-02-01T09:33:01;100582.22;;;5.40
72675;BMP280;60752;53.962;9.614;2023-02-01T09:38:03;100572.63;;;5.41
72675;BMP280;60752;53.962;9.614;2023-02-01T09:43:15;100566.81;;;5.50
72675;BMP280;60752;53.962;9.614;2023-02-01T09:48:21;100573.59;;;5.51
72675;BMP280;60752;53.962;9.614;2023-02-01T09:53:28;100573.91;;;5.55
72675;BMP280;60752;53.962;9.614;2023-02-01T09:58:32;100578.78;;;5.68
72675;BMP280;60752;53.962;9.614;2023-02-01T10:03:37;100577.50;;;5.71
72675;BMP280;60752;53.962;9.614;2023-02-01T10:08:54;100574.53;;;5.62
72675;BMP280;60752;53.962;9.614;2023-02-01T10:14:07;100568.84;;;5.65
72675;BMP280;60752;53.962;9.614;2023-02-01T10:19:24;100551.34;;;5.72
72675;BMP280;60752;53.962;9.614;2023-02-01T10:24:41;100543.75;;;5.71
72675;BMP280;60752;53.962;9.614;2023-02-01T10:29:45;100544.00;;;5.69
72675;BMP280;60752;53.962;9.614;2023-02-01T10:34:49;100523.66;;;5.61
72675;BMP280;60752;53.962;9.614;2023-02-01T10:39:55;100515.38;;;5.47
72675;BMP280;60752;53.962;9.614;2023-02-01T10:44:58;100509.34;;;5.42
72675;BMP280;60752;53.962;9.614;2023-02-01T10:50:08;100523.16;;;5.47
72675;BMP280;60752;53.962;9.614;2023-02-01T10:55:39;100516.34;;;5.58
72675;BMP280;60752;53.962;9.614;2023-02-01T11:00:48;100508.06;;;5.61
72675;BMP280;60752;53.962;9.614;2023-02-01T11:05:52;100492.34;;;5.67
72675;BMP280;60752;53.962;9.614;2023-02-01T11:11:02;100495.47;;;5.70
72675;BMP280;60752;53.962;9.614;2023-02-01T11:16:04;100488.72;;;5.68
72675;BMP280;60752;53.962;9.614;2023-02-01T11:21:07;100470.22;;;5.65
72675;BMP280;60752;53.962;9.614;2023-02-01T11:26:13;100467.09;;;5.63
72675;BMP280;60752;53.962;9.614;2023-02-01T11:31:14;100453.16;;;5.69
72675;BMP280;60752;53.962;9.614;2023-02-01T11:36:16;100435.94;;;5.63
72675;BMP280;60752;53.962;9.614;2023-02-01T11:41:23;100438.78;;;5.61
72675;BMP280;60752;53.962;9.614;2023-02-01T11:46:28;100419.78;;;5.56
72675;BMP280;60752;53.962;9.614;2023-02-01T11:51:42;100441.47;;;5.66
72675;BMP280;60752;53.962;9.614;2023-02-01T11:56:55;100420.69;;;5.45
72675;BMP280;60752;53.962;9.614;2023-02-01T12:02:11;100409.53;;;5.44
72675;BMP280;60752;53.962;9.614;2023-02-01T12:07:19;100394.53;;;5.29
72675;BMP280;60752;53.962;9.614;2023-02-01T12:12:25;100416.69;;;5.20
72675;BMP280;60752;53.962;9.614;2023-02-01T12:17:48;100470.06;;;5.16
72675;BMP280;60752;53.962;9.614;2023-02-01T12:22:59;100492.63;;;5.16
72675;BMP280;60752;53.962;9.614;2023-02-01T12:28:16;100462.88;;;5.06
72675;BMP280;60752;53.962;9.614;2023-02-01T12:33:21;100459.34;;;4.96
72675;BMP280;60752;53.962;9.614;2023-02-01T12:38:38;100488.59;;;4.91
72675;BMP280;60752;53.962;9.614;2023-02-01T12:43:47;100477.03;;;4.82
72675;BMP280;60752;53.962;9.614;2023-02-01T12:48:55;100447.81;;;4.70
72675;BMP280;60752;53.962;9.614;2023-02-01T12:54:02;100457.59;;;4.68
72675;BMP280;60752;53.962;9.614;2023-02-01T12:59:16;100475.28;;;4.71
72675;BMP280;60752;53.962;9.614;2023-02-01T13:04:20;100498.38;;;4.72
72675;BMP280;60752;53.962;9.614;2023-02-01T13:09:27;100500.47;;;4.59
72675;BMP280;60752;53.962;9.614;2023-02-01T13:14:33;100471.31;;;4.51
72675;BMP280;60752;53.962;9.614;2023-02-01T13:19:43;100456.81;;;4.50
72675;BMP280;60752;53.962;9.614;2023-02-01T13:24:47;100433.94;;;4.47
72675;BMP280;60752;53.962;9.614;2023-02-01T13:29:55;100424.03;;;4.44
72675;BMP280;60752;53.962;9.614;2023-02-01T13:35:30;100431.28;;;4.42
72675;BMP280;60752;53.962;9.614;2023-02-01T13:40:38;100439.44;;;4.51
72675;BMP280;60752;53.962;9.614;2023-02-01T13:45:46;100429.09;;;4.51
72675;BMP280;60752;53.962;9.614;2023-02-01T13:50:51;100441.25;;;4.50
72675;BMP280;60752;53.962;9.614;2023-02-01T13:55:58;100477.16;;;4.59
72675;BMP280;60752;53.962;9.614;2023-02-01T14:01:34;100477.41;;;4.45
72675;BMP280;60752;53.962;9.614;2023-02-01T14:06:42;100490.13;;;4.47
72675;BMP280;60752;53.962;9.614;2023-02-01T14:11:45;100467.78;;;4.29
72675;BMP280;60752;53.962;9.614;2023-02-01T14:22:36;100453.81;;;4.30
72675;BMP280;60752;53.962;9.614;2023-02-01T14:27:36;100459.00;;;4.30
72675;BMP280;60752;53.962;9.614;2023-02-01T14:32:39;100461.22;;;4.38
72675;BMP280;60752;53.962;9.614;2023-02-01T14:37:41;100474.75;;;4.40
72675;BMP280;60752;53.962;9.614;2023-02-01T14:42:44;100475.31;;;4.42
72675;BMP280;60752;53.962;9.614;2023-02-01T14:47:47;100475.84;;;4.44
72675;BMP280;60752;53.962;9.614;2023-02-01T14:53:03;100468.88;;;4.45
72675;BMP280;60752;53.962;9.614;2023-02-01T14:58:09;100481.25;;;4.43
72675;BMP280;60752;53.962;9.614;2023-02-01T15:03:24;100491.31;;;4.39
72675;BMP280;60752;53.962;9.614;2023-02-01T15:08:27;100486.03;;;4.34
72675;BMP280;60752;53.962;9.614;2023-02-01T15:13:28;100500.72;;;4.45
72675;BMP280;60752;53.962;9.614;2023-02-01T15:18:31;100505.69;;;4.47
72675;BMP280;60752;53.962;9.614;2023-02-01T15:23:32;100505.78;;;4.52
72675;BMP280;60752;53.962;9.614;2023-02-01T15:28:33;100508.94;;;4.54
72675;BMP280;60752;53.962;9.614;2023-02-01T15:33:34;100522.44;;;4.56
72675;BMP280;60752;53.962;9.614;2023-02-01T15:38:38;100513.94;;;4.61
72675;BMP280;60752;53.962;9.614;2023-02-01T15:43:41;100512.94;;;4.62
72675;BMP280;60752;53.962;9.614;2023-02-01T15:48:46;100514.72;;;4.61
72675;BMP280;60752;53.962;9.614;2023-02-01T15:53:52;100515.13;;;4.53
72675;BMP280;60752;53.962;9.614;2023-02-01T15:58:55;100516.94;;;4.52
72675;BMP280;60752;53.962;9.614;2023-02-01T16:04:12;100521.19;;;4.59
72675;BMP280;60752;53.962;9.614;2023-02-01T16:09:17;100515.06;;;4.65
72675;BMP280;60752;53.962;9.614;2023-02-01T16:14:17;100545.16;;;4.66
72675;BMP280;60752;53.962;9.614;2023-02-01T16:19:19;100549.31;;;4.67
72675;BMP280;60752;53.962;9.614;2023-02-01T16:24:20;100549.31;;;4.67
72675;BMP280;60752;53.962;9.614;2023-02-01T16:29:20;100554.50;;;4.67
72675;BMP280;60752;53.962;9.614;2023-02-01T16:34:22;100572.50;;;4.73
72675;BMP280;60752;53.962;9.614;2023-02-01T16:39:23;100562.56;;;4.82
72675;BMP280;60752;53.962;9.614;2023-02-01T16:44:23;100569.00;;;4.79
72675;BMP280;60752;53.962;9.614;2023-02-01T16:49:25;100572.59;;;4.78
72675;BMP280;60752;53.962;9.614;2023-02-01T16:54:26;100576.78;;;4.79
72675;BMP280;60752;53.962;9.614;2023-02-01T16:59:26;100569.22;;;4.78
72675;BMP280;60752;53.962;9.614;2023-02-01T17:04:28;100563.59;;;4.81
72675;BMP280;60752;53.962;9.614;2023-02-01T17:09:28;100561.66;;;4.76
72675;BMP280;60752;53.962;9.614;2023-02-01T17:14:30;100561.78;;;4.81
72675;BMP280;60752;53.962;9.614;2023-02-01T17:19:32;100564.59;;;4.80
72675;BMP280;60752;53.962;9.614;2023-02-01T17:24:33;100582.75;;;4.80
72675;BMP280;60752;53.962;9.614;2023-02-01T17:29:33;100589.81;;;4.85
72675;BMP280;60752;53.962;9.614;2023-02-01T17:34:35;100605.59;;;4.83
72675;BMP280;60752;53.962;9.614;2023-02-01T17:39:35;100584.47;;;4.74
72675;BMP280;60752;53.962;9.614;2023-02-01T17:44:36;100588.19;;;4.67
72675;BMP280;60752;53.962;9.614;2023-02-01T17:49:38;100585.25;;;4.63
72675;BMP280;60752;53.962;9.614;2023-02-01T17:54:38;100592.47;;;4.61
72675;BMP280;60752;53.962;9.614;2023-02-01T17:59:39;100587.84;;;4.63
72675;BMP280;60752;53.962;9.614;2023-02-01T18:04:41;100575.50;;;4.53
72675;BMP280;60752;53.962;9.614;2023-02-01T18:09:41;100568.19;;;4.50
72675;BMP280;60752;53.962;9.614;2023-02-01T18:14:41;100573.13;;;4.52
72675;BMP280;60752;53.962;9.614;2023-02-01T18:19:43;100567.50;;;4.55
72675;BMP280;60752;53.962;9.614;2023-02-01T18:24:44;100563.63;;;4.69
72675;BMP280;60752;53.962;9.614;2023-02-01T18:29:44;100559.00;;;4.71
72675;BMP280;60752;53.962;9.614;2023-02-01T18:34:46;100554.69;;;4.77
72675;BMP280;60752;53.962;9.614;2023-02-01T18:39:46;100564.38;;;4.81
72675;BMP280;60752;53.962;9.614;2023-02-01T18:44:46;100578.22;;;4.87
72675;BMP280;60752;53.962;9.614;2023-02-01T18:49:48;100578.34;;;4.80
72675;BMP280;60752;53.962;9.614;2023-02-01T18:54:49;100579.50;;;4.73
72675;BMP280;60752;53.962;9.614;2023-02-01T18:59:49;100608.16;;;4.55
72675;BMP280;60752;53.962;9.614;2023-02-01T19:04:51;100591.50;;;4.50
72675;BMP280;60752;53.962;9.614;2023-02-01T19:09:51;100605.91;;;4.46
72675;BMP280;60752;53.962;9.614;2023-02-01T19:14:51;100611.00;;;4.41
72675;BMP280;60752;53.962;9.614;2023-02-01T19:19:53;100588.34;;;4.37
72675;BMP280;60752;53.962;9.614;2023-02-01T19:24:54;100592.34;;;4.28
72675;BMP280;60752;53.962;9.614;2023-02-01T19:29:54;100591.28;;;4.29
72675;BMP280;60752;53.962;9.614;2023-02-01T19:34:56;100601.88;;;4.27
72675;BMP280;60752;53.962;9.614;2023-02-01T19:39:56;100620.81;;;4.28
72675;BMP280;60752;53.962;9.614;2023-02-01T19:44:57;100614.94;;;4.32
72675;BMP280;60752;53.962;9.614;2023-02-01T19:49:59;100598.19;;;4.23
72675;BMP280;60752;53.962;9.614;2023-02-01T19:54:59;100595.81;;;4.21
72675;BMP280;60752;53.962;9.614;2023-02-01T20:00:00;100587.47;;;4.19
72675;BMP280;60752;53.962;9.614;2023-02-01T20:05:01;100602.22;;;4.31
72675;BMP280;60752;53.962;9.614;2023-02-01T20:10:02;100592.06;;;4.29
72675;BMP280;60752;53.962;9.614;2023-02-01T20:15:03;100591.41;;;4.34
72675;BMP280;60752;53.962;9.614;2023-02-01T20:20:06;100582.94;;;4.38
72675;BMP280;60752;53.962;9.614;2023-02-01T20:25:07;100599.47;;;4.49
72675;BMP280;60752;53.962;9.614;2023-02-01T20:30:09;100585.19;;;4.46
72675;BMP280;60752;53.962;9.614;2023-02-01T20:35:12;100597.34;;;4.58
72675;BMP280;60752;53.962;9.614;2023-02-01T20:40:12;100598.78;;;4.65
72675;BMP280;60752;53.962;9.614;2023-02-01T20:45:13;100596.84;;;4.72
72675;BMP280;60752;53.962;9.614;2023-02-01T20:50:15;100597.19;;;4.64
72675;BMP280;60752;53.962;9.614;2023-02-01T20:55:16;100600.31;;;4.78
72675;BMP280;60752;53.962;9.614;2023-02-01T21:00:17;100595.06;;;4.61
72675;BMP280;60752;53.962;9.614;2023-02-01T21:05:18;100613.88;;;4.68
72675;BMP280;60752;53.962;9.614;2023-02-01T21:10:19;100599.44;;;4.72
72675;BMP280;60752;53.962;9.614;2023-02-01T21:15:19;100609.38;;;4.75
72675;BMP280;60752;53.962;9.614;2023-02-01T21:20:21;100625.22;;;4.79
72675;BMP280;60752;53.962;9.614;2023-02-01T21:25:22;100631.19;;;4.79
72675;BMP280;60752;53.962;9.614;2023-02-01T21:30:23;100631.91;;;4.75
72675;BMP280;60752;53.962;9.614;2023-02-01T21:35:25;100632.78;;;4.80
72675;BMP280;60752;53.962;9.614;2023-02-01T21:40:25;100652.38;;;4.88
72675;BMP280;60752;53.962;9.614;2023-02-01T21:45:26;100658.22;;;4.84
72675;BMP280;60752;53.962;9.614;2023-02-01T21:50:27;100639.97;;;4.90
72675;BMP280;60752;53.962;9.614;2023-02-01T21:55:28;100652.69;;;4.92
72675;BMP280;60752;53.962;9.614;2023-02-01T22:00:28;100658.41;;;4.94
72675;BMP280;60752;53.962;9.614;2023-02-01T22:05:30;100674.53;;;4.96
72675;BMP280;60752;53.962;9.614;2023-02-01T22:10:30;100692.25;;;4.99
72675;BMP280;60752;53.962;9.614;2023-02-01T22:15:31;100699.88;;;5.05
72675;BMP280;60752;53.962;9.614;2023-02-01T22:20:32;100715.44;;;5.05
72675;BMP280;60752;53.962;9.614;2023-02-01T22:25:33;100713.41;;;4.96
72675;BMP280;60752;53.962;9.614;2023-02-01T22:30:33;100724.03;;;4.94
72675;BMP280;60752;53.962;9.614;2023-02-01T22:35:35;100736.63;;;5.02
72675;BMP280;60752;53.962;9.614;2023-02-01T22:40:36;100724.13;;;4.99
72675;BMP280;60752;53.962;9.614;2023-02-01T22:45:36;100757.16;;;4.92
72675;BMP280;60752;53.962;9.614;2023-02-01T22:50:38;100733.38;;;4.95
72675;BMP280;60752;53.962;9.614;2023-02-01T22:55:39;100765.72;;;4.93
72675;BMP280;60752;53.962;9.614;2023-02-01T23:00:39;100767.06;;;4.95
72675;BMP280;60752;53.962;9.614;2023-02-01T23:05:41;100775.22;;;4.99
72675;BMP280;60752;53.962;9.614;2023-02-01T23:10:41;100780.63;;;4.97
72675;BMP280;60752;53.962;9.614;2023-02-01T23:15:42;100779.84;;;4.97
72675;BMP280;60752;53.962;9.614;2023-02-01T23:20:43;100786.13;;;5.01
72675;BMP280;60752;53.962;9.614;2023-02-01T23:25:48;100793.91;;;5.01
72675;BMP280;60752;53.962;9.614;2023-02-01T23:30:48;100794.78;;;5.06
72675;BMP280;60752;53.962;9.614;2023-02-01T23:35:55;100799.44;;;5.04
72675;BMP280;60752;53.962;9.614;2023-02-01T23:40:56;100808.44;;;5.02
72675;BMP280;60752;53.962;9.614;2023-02-01T23:45:57;100817.25;;;5.01
72675;BMP280;60752;53.962;9.614;2023-02-01T23:50:59;100836.97;;;5.02
72675;BMP280;60752;53.962;9.614;2023-02-01T23:56:00;100824.59;;;5.04
